Time;durP1;ratioP1;P1;durP2;ratioP2;P2;SDS_P1;SDS_P2;PMS_P1;PMS_P2;Temp;Humidity;BMP_temperature;BMP_pressure;BME280_temperature;BME280_humidity;BME280_pressure;Samples;Min_cycle;Max_cycle;Signal;HPM_P1;HPM_P2
2023/08/21 00:00:51;;;;;;;5.28;2.20;;;17.90;99.90;;;;;;5036693;28;20349;-75
2023/08/21 00:03:35;;;;;;;2.65;1.85;;;17.90;99.90;;;;;;5051778;28;20198;-74
2023/08/21 00:06:19;;;;;;;5.25;2.30;;;17.80;99.90;;;;;;5037800;28;20396;-74
2023/08/21 00:09:03;;;;;;;5.03;2.05;;;17.80;99.90;;;;;;5044141;28;20226;-74
2023/08/21 00:11:47;;;;;;;4.70;2.17;;;17.80;99.90;;;;;;5036668;28;20206;-73
2023/08/21 00:14:32;;;;;;;6.38;2.35;;;17.80;99.90;;;;;;5030649;28;20307;-75
2023/08/21 00:17:16;;;;;;;5.90;2.35;;;17.70;99.90;;;;;;5040268;28;20209;-75
2023/08/21 00:20:00;;;;;;;2.85;1.83;;;17.70;99.90;;;;;;5043102;28;20599;-73
2023/08/21 00:22:45;;;;;;;6.47;2.60;;;17.80;99.90;;;;;;5042514;28;20396;-74
2023/08/21 00:25:29;;;;;;;3.78;2.65;;;18.20;99.90;;;;;;5037096;28;20195;-73
2023/08/21 00:28:14;;;;;;;4.28;2.28;;;17.60;99.90;;;;;;5039218;28;20189;-74
2023/08/21 00:31:03;;;;;;;5.68;2.10;;;17.60;99.90;;;;;;5049309;28;20561;-73
2023/08/21 00:33:48;;;;;;;4.43;2.03;;;17.60;99.90;;;;;;5035319;28;20265;-73
2023/08/21 00:36:32;;;;;;;5.73;2.57;;;17.50;99.90;;;;;;5052946;28;20179;-73
2023/08/21 00:39:16;;;;;;;5.45;2.28;;;17.60;99.90;;;;;;5053708;28;20201;-74
2023/08/21 00:42:00;;;;;;;3.87;2.07;;;17.50;99.90;;;;;;5034116;28;20218;-75
2023/08/21 00:44:44;;;;;;;4.90;2.27;;;17.50;99.90;;;;;;5038078;28;20187;-73
2023/08/21 00:47:29;;;;;;;3.42;2.15;;;17.50;99.90;;;;;;5038274;28;20672;-73
2023/08/21 00:50:15;;;;;;;6.00;2.45;;;17.40;99.90;;;;;;5039918;28;20199;-72
2023/08/21 00:53:00;;;;;;;6.03;2.27;;;17.40;99.90;;;;;;5031102;28;20809;-74
2023/08/21 00:55:45;;;;;;;4.07;2.42;;;17.50;99.90;;;;;;5037426;28;20263;-76
2023/08/21 00:58:29;;;;;;;4.20;2.50;;;17.40;99.90;;;;;;5035709;28;20195;-73
2023/08/21 01:01:17;;;;;;;3.70;2.20;;;17.40;99.90;;;;;;5054125;28;20206;-75
2023/08/21 01:04:02;;;;;;;4.47;2.72;;;17.30;99.90;;;;;;5039140;28;20461;-75
2023/08/21 01:06:49;;;;;;;3.47;2.35;;;17.30;99.90;;;;;;5037712;28;20186;-74
2023/08/21 01:09:45;;;;;;;7.05;2.60;;;17.20;99.90;;;;;;5035482;28;20206;-74
2023/08/21 01:12:50;;;;;;;6.83;2.50;;;17.20;99.90;;;;;;5044444;28;20369;-74
2023/08/21 01:15:37;;;;;;;2.35;1.80;;;17.20;99.90;;;;;;5055649;28;20183;-72
2023/08/21 01:18:22;;;;;;;3.00;2.40;;;17.20;99.90;;;;;;5047057;28;20202;-72
2023/08/21 01:21:06;;;;;;;3.55;2.25;;;17.20;99.90;;;;;;5032897;28;20610;-73
2023/08/21 01:23:51;;;;;;;5.33;2.47;;;17.20;99.90;;;;;;5035738;28;20266;-73
2023/08/21 01:26:35;;;;;;;7.57;2.40;;;17.10;99.90;;;;;;5036841;28;20256;-74
2023/08/21 01:29:20;;;;;;;5.67;2.40;;;17.10;99.90;;;;;;5033738;28;20186;-74
2023/08/21 01:32:24;;;;;;;3.78;2.08;;;17.10;99.90;;;;;;5034939;28;20340;-73
2023/08/21 01:35:10;;;;;;;4.93;2.67;;;17.10;99.90;;;;;;5043915;28;20201;-73
2023/08/21 01:37:55;;;;;;;7.80;3.20;;;17.00;99.90;;;;;;5039632;28;20408;-74
2023/08/21 01:40:40;;;;;;;7.28;2.33;;;17.10;99.90;;;;;;5039256;28;20201;-75
2023/08/21 01:43:24;;;;;;;4.65;2.67;;;17.00;99.90;;;;;;5038008;28;20492;-74
2023/08/21 01:46:09;;;;;;;5.40;2.67;;;17.00;99.90;;;;;;5050631;28;20186;-73
2023/08/21 01:48:54;;;;;;;4.78;2.60;;;17.00;99.90;;;;;;5052354;28;20796;-74
2023/08/21 01:51:38;;;;;;;9.55;2.50;;;17.00;99.90;;;;;;5038413;28;20217;-76
2023/08/21 01:54:22;;;;;;;4.10;2.40;;;17.00;99.90;;;;;;5032902;28;20207;-76
2023/08/21 01:57:07;;;;;;;3.47;2.20;;;17.00;99.90;;;;;;5034305;28;20194;-74
2023/08/21 01:59:51;;;;;;;5.77;2.50;;;17.00;99.90;;;;;;5038408;28;20182;-74
2023/08/21 02:02:35;;;;;;;3.88;2.25;;;17.00;99.90;;;;;;5029659;28;20213;-72
2023/08/21 02:05:19;;;;;;;3.37;2.47;;;16.90;99.90;;;;;;5056011;28;20476;-74
2023/08/21 02:08:04;;;;;;;5.33;2.97;;;16.80;99.90;;;;;;5037522;28;20517;-75
2023/08/21 02:10:49;;;;;;;6.32;2.55;;;16.80;99.90;;;;;;5036540;28;20186;-74
2023/08/21 02:13:34;;;;;;;2.77;2.27;;;16.80;99.90;;;;;;5035784;28;20271;-74
2023/08/21 02:16:18;;;;;;;4.57;2.50;;;16.80;99.90;;;;;;5037391;28;20287;-74
2023/08/21 02:19:02;;;;;;;3.83;2.60;;;16.80;99.90;;;;;;5037166;28;20182;-73
2023/08/21 02:21:46;;;;;;;4.10;2.50;;;16.70;99.90;;;;;;5038655;28;20226;-75
2023/08/21 02:24:30;;;;;;;3.83;2.28;;;16.70;99.90;;;;;;5036629;28;20218;-74
2023/08/21 02:27:15;;;;;;;5.97;2.67;;;16.70;99.90;;;;;;5039248;28;20242;-73
2023/08/21 02:29:59;;;;;;;4.37;2.70;;;16.70;99.90;;;;;;5030522;28;20206;-72
2023/08/21 02:32:43;;;;;;;3.00;2.67;;;16.70;99.90;;;;;;5042946;28;20238;-73
2023/08/21 02:35:27;;;;;;;3.40;2.60;;;16.70;99.90;;;;;;5032733;28;20285;-73
2023/08/21 02:38:12;;;;;;;5.30;2.50;;;16.70;99.90;;;;;;5038120;28;20175;-75
2023/08/21 02:40:56;;;;;;;4.33;2.57;;;16.60;99.90;;;;;;5042390;28;20174;-74
2023/08/21 02:43:41;;;;;;;3.23;2.33;;;16.50;99.90;;;;;;5038647;28;20199;-73
2023/08/21 02:46:25;;;;;;;5.13;2.73;;;16.60;99.90;;;;;;5046016;28;20206;-74
2023/08/21 02:49:09;;;;;;;3.40;2.80;;;16.60;99.90;;;;;;5034899;28;20541;-75
2023/08/21 02:51:54;;;;;;;4.40;2.50;;;16.50;99.90;;;;;;5034775;28;20215;-74
2023/08/21 02:54:38;;;;;;;4.17;2.50;;;16.50;99.90;;;;;;5046750;28;20702;-73
2023/08/21 02:57:24;;;;;;;4.87;2.77;;;16.40;99.90;;;;;;5035204;28;20202;-72
2023/08/21 03:00:08;;;;;;;4.23;2.90;;;16.50;99.90;;;;;;5036774;28;20178;-73
2023/08/21 03:02:53;;;;;;;4.80;2.93;;;16.40;99.90;;;;;;5039368;28;20246;-74
2023/08/21 03:05:37;;;;;;;4.47;2.80;;;16.40;99.90;;;;;;5035436;28;20182;-74
2023/08/21 03:08:21;;;;;;;5.20;2.77;;;16.40;99.90;;;;;;5055924;28;20180;-73
2023/08/21 03:11:05;;;;;;;3.50;2.70;;;16.40;99.90;;;;;;5038725;28;20575;-73
2023/08/21 03:13:49;;;;;;;3.53;2.97;;;16.40;99.90;;;;;;5036163;28;20230;-74
2023/08/21 03:16:33;;;;;;;4.10;2.80;;;16.30;99.90;;;;;;5033804;28;20236;-72
2023/08/21 03:19:17;;;;;;;6.27;3.20;;;16.30;99.90;;;;;;5040776;28;20238;-73
2023/08/21 03:22:02;;;;;;;4.47;2.80;;;16.30;99.90;;;;;;5050981;28;20234;-73
2023/08/21 03:24:46;;;;;;;4.03;3.20;;;16.20;99.90;;;;;;5049823;28;20249;-76
2023/08/21 03:27:34;;;;;;;5.63;3.13;;;16.20;99.90;;;;;;5029138;28;20231;-75
2023/08/21 03:30:18;;;;;;;6.63;3.40;;;16.20;99.90;;;;;;5036470;28;20186;-73
2023/08/21 03:33:03;;;;;;;6.90;3.50;;;16.20;99.90;;;;;;5036186;28;20269;-73
2023/08/21 03:35:54;;;;;;;5.87;3.37;;;16.20;99.90;;;;;;5037976;28;20654;-74
2023/08/21 03:38:38;;;;;;;4.33;3.33;;;16.20;99.90;;;;;;5037289;28;20210;-73
2023/08/21 03:41:22;;;;;;;4.40;3.33;;;16.20;99.90;;;;;;5043168;28;20205;-74
2023/08/21 03:44:06;;;;;;;3.63;3.33;;;16.20;99.90;;;;;;5033693;28;20186;-73
2023/08/21 03:46:51;;;;;;;6.50;3.07;;;16.10;99.90;;;;;;5036022;28;20279;-72
2023/08/21 03:49:36;;;;;;;4.67;3.27;;;16.10;99.90;;;;;;5046821;28;20259;-75
2023/08/21 03:52:20;;;;;;;8.87;3.47;;;16.10;99.90;;;;;;5051777;28;20337;-72
2023/08/21 03:55:04;;;;;;;5.83;3.77;;;16.10;99.90;;;;;;5036737;28;20195;-75
2023/08/21 03:57:49;;;;;;;5.97;3.67;;;16.10;99.90;;;;;;5031037;28;20179;-74
2023/08/21 04:00:33;;;;;;;6.60;3.33;;;16.00;99.90;;;;;;5034791;28;20186;-75
2023/08/21 04:03:17;;;;;;;4.47;3.30;;;16.00;99.90;;;;;;5036469;28;20211;-72
2023/08/21 04:06:02;;;;;;;6.40;3.83;;;16.10;99.90;;;;;;5045150;28;20189;-73
2023/08/21 04:08:46;;;;;;;4.57;3.20;;;15.90;99.90;;;;;;5035890;28;20577;-72
2023/08/21 04:11:30;;;;;;;8.97;3.57;;;15.90;99.90;;;;;;5029394;28;20344;-72
2023/08/21 04:14:15;;;;;;;3.87;3.47;;;15.90;99.90;;;;;;5035463;28;20205;-71
2023/08/21 04:16:59;;;;;;;7.87;3.67;;;15.90;99.90;;;;;;5036327;28;20202;-71
2023/08/21 04:19:43;;;;;;;6.50;3.90;;;15.90;99.90;;;;;;5046307;28;20233;-72
2023/08/21 04:22:28;;;;;;;5.13;3.43;;;15.80;99.90;;;;;;5030985;28;20250;-72
2023/08/21 04:25:12;;;;;;;6.07;3.73;;;15.90;99.90;;;;;;5034665;28;20175;-71
2023/08/21 04:27:56;;;;;;;4.27;3.23;;;15.90;99.90;;;;;;5037559;28;20201;-71
2023/08/21 04:30:41;;;;;;;6.30;3.87;;;15.80;99.90;;;;;;5041474;28;20190;-72
2023/08/21 04:33:28;;;;;;;10.00;3.93;;;16.00;99.90;;;;;;5055321;28;20229;-71
2023/08/21 04:36:16;;;;;;;5.43;3.87;;;15.80;99.90;;;;;;5035497;28;20597;-72
2023/08/21 04:39:01;;;;;;;8.13;4.30;;;15.70;99.90;;;;;;5038717;28;20218;-71
2023/08/21 04:41:45;;;;;;;11.53;4.40;;;15.70;99.90;;;;;;5048690;28;20241;-71
2023/08/21 04:44:30;;;;;;;10.87;4.53;;;15.80;99.90;;;;;;5043971;28;20202;-71
2023/08/21 04:47:21;;;;;;;7.33;4.80;;;15.80;99.90;;;;;;5030570;28;20316;-71
2023/08/21 04:50:05;;;;;;;5.60;4.27;;;15.80;99.90;;;;;;5031582;28;20191;-70
2023/08/21 04:52:50;;;;;;;8.10;4.60;;;15.80;99.90;;;;;;5038709;28;20214;-71
2023/08/21 04:55:34;;;;;;;5.87;4.10;;;15.80;99.90;;;;;;5049354;28;20223;-71
2023/08/21 04:58:18;;;;;;;7.87;4.70;;;15.90;99.90;;;;;;5035410;28;20224;-72
2023/08/21 05:01:04;;;;;;;10.83;5.50;;;15.80;99.90;;;;;;5034847;28;20214;-72
2023/08/21 05:03:49;;;;;;;9.70;5.30;;;15.80;99.90;;;;;;5052195;28;20705;-70
2023/08/21 05:06:33;;;;;;;10.30;4.57;;;15.80;99.90;;;;;;5057010;28;20194;-71
2023/08/21 05:09:17;;;;;;;5.60;4.43;;;15.80;99.90;;;;;;5042758;28;20186;-71
2023/08/21 05:12:01;;;;;;;6.27;4.70;;;15.80;99.90;;;;;;5040799;28;20602;-71
2023/08/21 05:14:45;;;;;;;9.63;4.43;;;15.80;99.90;;;;;;5047390;28;20217;-72
2023/08/21 05:17:29;;;;;;;6.30;4.70;;;15.80;99.90;;;;;;5050667;28;20233;-71
2023/08/21 05:20:14;;;;;;;9.67;5.07;;;15.60;99.90;;;;;;5048318;28;20185;-72
2023/08/21 05:22:58;;;;;;;6.13;4.77;;;15.80;99.90;;;;;;5039328;28;20706;-71
2023/08/21 05:25:44;;;;;;;6.33;4.30;;;15.80;99.90;;;;;;5041635;28;20210;-71
2023/08/21 05:28:28;;;;;;;6.30;4.70;;;15.80;99.90;;;;;;5048720;28;20701;-71
2023/08/21 05:31:12;;;;;;;11.60;4.80;;;15.90;99.90;;;;;;5032647;28;20736;-71
2023/08/21 05:33:56;;;;;;;6.17;4.57;;;15.90;99.90;;;;;;5048920;28;20207;-72
2023/08/21 05:36:40;;;;;;;9.43;4.80;;;16.00;99.90;;;;;;5053209;28;20609;-72
2023/08/21 05:39:24;;;;;;;7.77;5.50;;;16.00;99.90;;;;;;5035158;28;20198;-72
2023/08/21 05:42:08;;;;;;;11.17;5.70;;;16.10;99.90;;;;;;5051403;28;20255;-72
2023/08/21 05:44:52;;;;;;;7.17;5.63;;;16.20;99.90;;;;;;5056537;28;20252;-74
2023/08/21 05:47:36;;;;;;;7.33;5.97;;;16.10;99.90;;;;;;5034143;28;20738;-71
2023/08/21 05:50:21;;;;;;;9.67;6.10;;;16.20;99.90;;;;;;5036653;28;20186;-71
2023/08/21 05:53:06;;;;;;;10.47;6.40;;;16.40;99.90;;;;;;5044722;28;20270;-71
2023/08/21 05:55:50;;;;;;;6.90;6.20;;;16.40;99.90;;;;;;5039900;28;20187;-72
2023/08/21 05:58:34;;;;;;;9.20;6.30;;;16.50;99.90;;;;;;5055857;28;20740;-70
2023/08/21 06:01:18;;;;;;;10.93;6.40;;;16.50;99.90;;;;;;5048348;28;20302;-70
2023/08/21 06:04:02;;;;;;;10.73;6.97;;;16.50;99.90;;;;;;5039120;28;20179;-72
2023/08/21 06:06:47;;;;;;;12.87;6.70;;;16.60;99.90;;;;;;5035304;28;20182;-71
2023/08/21 06:09:34;;;;;;;9.20;7.27;;;16.70;99.90;;;;;;5032086;28;20182;-72
2023/08/21 06:12:18;;;;;;;9.97;6.83;;;16.70;99.90;;;;;;5033731;28;20203;-71
2023/08/21 06:15:03;;;;;;;10.73;7.20;;;16.80;99.90;;;;;;5041806;28;20218;-71
2023/08/21 06:17:47;;;;;;;10.77;7.90;;;16.90;99.90;;;;;;5043416;28;20194;-71
2023/08/21 06:20:31;;;;;;;10.03;7.67;;;16.90;99.90;;;;;;5045951;28;20195;-72
2023/08/21 06:23:15;;;;;;;10.07;7.50;;;17.00;99.90;;;;;;5038357;28;20233;-71
2023/08/21 06:26:00;;;;;;;14.30;8.43;;;17.10;99.90;;;;;;5034412;28;20716;-72
2023/08/21 06:28:44;;;;;;;12.10;8.27;;;17.10;99.90;;;;;;5046872;28;20247;-71
2023/08/21 06:31:28;;;;;;;11.13;8.57;;;17.30;99.90;;;;;;5056072;28;20210;-72
2023/08/21 06:34:12;;;;;;;13.98;9.30;;;17.40;99.90;;;;;;5047493;28;20689;-74
2023/08/21 06:36:56;;;;;;;11.00;9.53;;;17.40;99.90;;;;;;5049417;28;20191;-72
2023/08/21 06:39:41;;;;;;;14.23;10.10;;;17.50;99.90;;;;;;5041162;28;20183;-73
2023/08/21 06:42:26;;;;;;;15.25;9.73;;;17.50;99.90;;;;;;5054500;28;20206;-72
2023/08/21 06:45:10;;;;;;;14.68;9.32;;;17.60;99.90;;;;;;5036070;28;20245;-72
2023/08/21 06:47:54;;;;;;;16.27;9.38;;;17.80;99.90;;;;;;5040915;28;20190;-72
2023/08/21 06:50:38;;;;;;;13.77;8.70;;;17.80;99.90;;;;;;5034726;28;20215;-72
2023/08/21 06:53:22;;;;;;;16.95;9.40;;;17.90;99.90;;;;;;5044864;28;20563;-71
2023/08/21 06:56:06;;;;;;;17.58;8.82;;;18.00;99.90;;;;;;5048874;28;20190;-75
2023/08/21 06:58:51;;;;;;;17.33;8.88;;;18.00;99.90;;;;;;5050942;28;20598;-74
2023/08/21 07:01:36;;;;;;;19.05;9.18;;;18.10;99.90;;;;;;5051271;28;20210;-74
2023/08/21 07:04:20;;;;;;;14.20;9.20;;;18.20;99.90;;;;;;5029110;28;20191;-74
2023/08/21 07:07:04;;;;;;;16.55;9.02;;;18.30;99.90;;;;;;5036250;28;20432;-72
2023/08/21 07:09:50;;;;;;;17.95;9.27;;;18.50;99.90;;;;;;5047110;28;20194;-73
2023/08/21 07:12:34;;;;;;;14.38;8.93;;;18.60;99.90;;;;;;5039637;28;20283;-72
2023/08/21 07:15:18;;;;;;;13.80;8.50;;;18.70;99.90;;;;;;5045333;28;20215;-72
2023/08/21 07:18:03;;;;;;;20.02;8.45;;;18.70;99.90;;;;;;5038502;28;20187;-74
2023/08/21 07:20:47;;;;;;;14.25;7.90;;;18.70;99.90;;;;;;5053400;28;20186;-75
2023/08/21 07:23:32;;;;;;;15.35;7.47;;;18.80;99.90;;;;;;5056716;28;20233;-74
2023/08/21 07:26:16;;;;;;;18.67;6.47;;;19.00;99.90;;;;;;5030703;28;20237;-74
2023/08/21 07:29:03;;;;;;;17.13;6.85;;;19.00;99.90;;;;;;5039685;28;20226;-73
2023/08/21 07:31:48;;;;;;;12.93;6.03;;;19.10;99.90;;;;;;5031182;28;20292;-73
2023/08/21 07:34:32;;;;;;;15.85;5.65;;;19.20;99.90;;;;;;5035249;28;20211;-73
2023/08/21 07:37:16;;;;;;;11.93;4.93;;;19.30;99.90;;;;;;5021394;28;20215;-73
2023/08/21 07:40:00;;;;;;;12.88;5.15;;;19.30;99.90;;;;;;5042527;28;20191;-74
2023/08/21 07:42:44;;;;;;;13.80;4.57;;;19.50;99.90;;;;;;5035992;28;20247;-73
2023/08/21 07:45:29;;;;;;;14.52;4.88;;;19.50;99.90;;;;;;5044078;28;20233;-73
2023/08/21 07:48:13;;;;;;;11.43;3.97;;;19.60;99.90;;;;;;5025306;28;20225;-73
2023/08/21 07:50:57;;;;;;;10.23;3.17;;;19.60;99.90;;;;;;5028428;28;20238;-73
2023/08/21 07:53:42;;;;;;;11.35;3.78;;;19.60;99.90;;;;;;5028789;28;20227;-72
2023/08/21 07:56:26;;;;;;;9.60;3.47;;;19.70;99.90;;;;;;5029559;28;20234;-74
2023/08/21 07:59:10;;;;;;;6.82;2.70;;;19.70;99.90;;;;;;5033476;28;20182;-72
2023/08/21 08:01:55;;;;;;;7.95;2.63;;;19.80;99.90;;;;;;5025327;28;20334;-72
2023/08/21 08:04:40;;;;;;;8.10;3.65;;;19.90;99.90;;;;;;5032361;28;20338;-73
2023/08/21 08:07:25;;;;;;;11.82;3.72;;;20.00;99.90;;;;;;5025987;28;20202;-72
2023/08/21 08:10:09;;;;;;;5.97;3.78;;;20.00;99.90;;;;;;5032261;28;20267;-74
2023/08/21 08:12:54;;;;;;;10.50;2.90;;;20.00;99.90;;;;;;5030453;28;20226;-73
2023/08/21 08:15:38;;;;;;;3.75;1.92;;;20.10;99.90;;;;;;5030560;28;20202;-72
2023/08/21 08:18:22;;;;;;;6.93;1.95;;;20.10;99.90;;;;;;5025646;28;20211;-74
2023/08/21 08:21:06;;;;;;;3.80;1.33;;;20.20;99.90;;;;;;5026005;28;20199;-73
2023/08/21 08:23:50;;;;;;;6.78;2.35;;;20.30;99.90;;;;;;5030157;28;20207;-73
2023/08/21 08:26:34;;;;;;;7.20;2.10;;;20.40;99.90;;;;;;5027077;28;20203;-74
2023/08/21 08:29:19;;;;;;;7.25;2.33;;;20.60;99.90;;;;;;5034009;28;20199;-74
2023/08/21 08:32:03;;;;;;;7.55;2.03;;;20.40;99.90;;;;;;5034085;28;20230;-73
2023/08/21 08:34:47;;;;;;;6.78;2.10;;;20.70;99.90;;;;;;5038574;28;20294;-73
2023/08/21 08:37:32;;;;;;;6.03;1.92;;;20.80;99.90;;;;;;5034222;28;20187;-73
2023/08/21 08:40:16;;;;;;;5.70;1.90;;;21.30;99.90;;;;;;5061115;28;20179;-73
2023/08/21 08:43:00;;;;;;;7.93;1.60;;;20.80;99.90;;;;;;5049314;28;20210;-72
2023/08/21 08:45:46;;;;;;;8.25;2.35;;;20.90;99.90;;;;;;5061471;28;20191;-73
2023/08/21 08:48:31;;;;;;;6.30;2.08;;;21.20;99.90;;;;;;5036583;28;20245;-74
2023/08/21 08:51:16;;;;;;;5.38;1.80;;;21.00;99.90;;;;;;5055819;28;20205;-74
2023/08/21 08:54:00;;;;;;;5.38;1.83;;;21.10;99.90;;;;;;5050090;28;20564;-74
2023/08/21 08:56:45;;;;;;;4.57;1.95;;;21.10;99.90;;;;;;5051507;28;20194;-73
2023/08/21 08:59:33;;;;;;;4.85;1.65;;;21.20;99.90;;;;;;5033123;28;20240;-73
2023/08/21 09:02:17;;;;;;;6.00;1.85;;;21.20;99.90;;;;;;5041526;28;20226;-73
2023/08/21 09:05:01;;;;;;;7.55;1.98;;;21.20;99.90;;;;;;5059232;28;20559;-73
2023/08/21 09:07:46;;;;;;;7.68;2.22;;;21.30;99.90;;;;;;5051333;28;20194;-72
2023/08/21 09:10:31;;;;;;;6.75;2.00;;;21.40;99.90;;;;;;5046499;28;20210;-73
2023/08/21 09:13:18;;;;;;;8.32;1.85;;;21.50;99.90;;;;;;5041647;28;20242;-75
2023/08/21 09:16:02;;;;;;;6.22;1.98;;;21.60;99.90;;;;;;5055709;28;20245;-73
2023/08/21 09:18:48;;;;;;;8.20;1.95;;;21.60;99.90;;;;;;5041592;28;20238;-74
2023/08/21 09:21:32;;;;;;;6.28;2.30;;;21.70;99.90;;;;;;5045482;28;20213;-73
2023/08/21 09:24:17;;;;;;;7.13;1.65;;;21.80;99.90;;;;;;5030814;28;20244;-74
2023/08/21 09:27:01;;;;;;;4.55;1.38;;;21.90;99.90;;;;;;5062316;28;20198;-72
2023/08/21 09:29:46;;;;;;;5.05;1.38;;;21.90;99.90;;;;;;5046373;28;20269;-73
2023/08/21 09:32:55;;;;;;;5.40;1.60;;;21.90;99.90;;;;;;5037646;28;20226;-73
2023/08/21 09:35:42;;;;;;;7.07;1.25;;;22.00;99.90;;;;;;5057480;28;20256;-73
2023/08/21 09:38:26;;;;;;;4.80;1.55;;;22.00;99.90;;;;;;5047573;28;20260;-73
2023/08/21 09:41:10;;;;;;;7.70;1.48;;;22.10;99.90;;;;;;5051497;28;20241;-74
2023/08/21 09:44:01;;;;;;;7.57;1.58;;;22.10;99.90;;;;;;5037758;28;20748;-75
2023/08/21 09:46:49;;;;;;;5.65;1.42;;;22.20;99.90;;;;;;5033712;28;20210;-74
2023/08/21 09:49:34;;;;;;;6.82;1.33;;;22.30;99.90;;;;;;5036412;28;20194;-73
2023/08/21 09:52:18;;;;;;;4.28;1.20;;;22.40;99.90;;;;;;5039883;28;20242;-73
2023/08/21 09:55:04;;;;;;;7.40;1.30;;;22.50;99.90;;;;;;5036891;28;20214;-74
2023/08/21 09:57:58;;;;;;;3.67;1.33;;;22.60;99.90;;;;;;5035501;28;20277;-73
2023/08/21 10:00:43;;;;;;;3.47;1.40;;;22.70;99.90;;;;;;5040909;28;20186;-75
2023/08/21 10:03:29;;;;;;;7.75;1.60;;;22.70;99.90;;;;;;5053584;28;20218;-73
2023/08/21 10:06:17;;;;;;;5.95;1.50;;;22.80;99.90;;;;;;5057270;28;20673;-75
2023/08/21 10:09:02;;;;;;;4.93;1.30;;;22.80;99.90;;;;;;5051797;28;20182;-75
2023/08/21 10:11:47;;;;;;;5.72;1.88;;;22.90;99.90;;;;;;5048549;28;20226;-74
2023/08/21 10:14:32;;;;;;;5.53;1.40;;;22.90;99.90;;;;;;5054001;28;20238;-75
2023/08/21 10:17:17;;;;;;;8.68;1.75;;;22.90;99.90;;;;;;5044700;28;20190;-74
2023/08/21 10:20:06;;;;;;;4.55;1.40;;;23.00;99.90;;;;;;5051934;28;20205;-75
2023/08/21 10:22:56;;;;;;;5.90;1.58;;;23.10;99.90;;;;;;5036126;28;20226;-74
2023/08/21 10:25:42;;;;;;;5.88;1.40;;;23.10;99.90;;;;;;5032254;28;20194;-76
2023/08/21 10:28:52;;;;;;;8.07;1.63;;;23.20;99.90;;;;;;5057093;28;20182;-76
2023/08/21 10:31:38;;;;;;;4.28;1.45;;;;;;;;;;5058529;28;20256;-76
2023/08/21 10:34:32;;;;;;;4.60;1.50;;;23.30;99.90;;;;;;5053101;28;20237;-75
2023/08/21 10:37:16;;;;;;;4.28;1.48;;;23.30;99.90;;;;;;5057047;28;20611;-75
2023/08/21 10:40:00;;;;;;;6.05;1.20;;;23.30;99.90;;;;;;5034720;28;20198;-75
2023/08/21 10:42:44;;;;;;;4.68;1.38;;;23.40;99.90;;;;;;5057397;28;20709;-74
2023/08/21 10:45:29;;;;;;;4.05;1.33;;;23.10;99.90;;;;;;5030120;28;20185;-75
2023/08/21 10:48:14;;;;;;;4.00;1.20;;;;;;;;;;5044346;28;20563;-76
2023/08/21 10:51:04;;;;;;;4.53;1.08;;;23.40;99.90;;;;;;5055649;28;20318;-74
2023/08/21 10:53:48;;;;;;;3.55;1.17;;;23.50;99.90;;;;;;5036081;28;20222;-74
2023/08/21 10:56:33;;;;;;;5.00;1.48;;;23.60;99.90;;;;;;5039320;28;20194;-75
2023/08/21 10:59:17;;;;;;;4.80;1.52;;;23.60;99.90;;;;;;5036916;28;20217;-76
2023/08/21 11:02:01;;;;;;;3.58;1.63;;;23.80;99.90;;;;;;5032924;28;20269;-75
2023/08/21 11:04:45;;;;;;;4.38;1.55;;;23.80;99.90;;;;;;5050567;28;20245;-75
2023/08/21 11:07:36;;;;;;;7.07;1.88;;;23.90;99.90;;;;;;5047414;28;20199;-74
2023/08/21 11:10:24;;;;;;;4.38;1.30;;;23.90;99.90;;;;;;5035378;28;20199;-76
2023/08/21 11:13:08;;;;;;;5.95;1.35;;;24.00;99.90;;;;;;5033569;28;20238;-75
2023/08/21 11:16:03;;;;;;;4.78;1.10;;;24.00;99.90;;;;;;5045748;28;20232;-75
2023/08/21 11:18:47;;;;;;;3.72;1.38;;;24.10;99.90;;;;;;5035997;28;20194;-76
2023/08/21 11:21:31;;;;;;;8.57;1.38;;;24.20;99.90;;;;;;5045473;28;20290;-75
2023/08/21 11:24:15;;;;;;;6.07;1.20;;;24.20;99.90;;;;;;5045395;28;20297;-76
2023/08/21 11:26:59;;;;;;;9.23;1.02;;;24.20;99.90;;;;;;5037949;28;20195;-77
2023/08/21 11:29:45;;;;;;;3.25;1.27;;;24.30;99.90;;;;;;5031656;28;20183;-76
2023/08/21 11:32:30;;;;;;;8.15;1.50;;;24.30;99.90;;;;;;5029646;28;20233;-75
2023/08/21 11:35:14;;;;;;;7.53;1.50;;;24.40;99.90;;;;;;5035088;28;20253;-76
2023/08/21 11:37:58;;;;;;;8.52;1.70;;;24.50;99.90;;;;;;5048902;28;20206;-76
2023/08/21 11:40:42;;;;;;;5.70;1.98;;;24.40;99.90;;;;;;5035005;28;20213;-75
2023/08/21 11:43:43;;;;;;;12.10;1.77;;;24.50;99.90;;;;;;5027928;28;20261;-74
2023/08/21 11:46:27;;;;;;;2.13;1.15;;;24.40;99.90;;;;;;5034668;28;20186;-75
2023/08/21 11:49:11;;;;;;;5.05;1.55;;;24.50;99.90;;;;;;5033758;28;20673;-75
2023/08/21 11:51:55;;;;;;;7.90;1.52;;;24.50;99.90;;;;;;5035421;28;20281;-76
2023/08/21 11:54:47;;;;;;;5.38;1.27;;;24.60;99.90;;;;;;5037477;28;20214;-73
2023/08/21 11:57:31;;;;;;;4.35;1.35;;;24.70;99.90;;;;;;5036159;28;20276;-74
2023/08/21 12:00:21;;;;;;;5.43;1.40;;;24.80;99.90;;;;;;5032595;28;20274;-73
2023/08/21 12:03:08;;;;;;;7.68;1.88;;;24.90;99.90;;;;;;5047848;28;20238;-75
2023/08/21 12:05:52;;;;;;;2.92;0.98;;;25.00;99.90;;;;;;5049764;28;20206;-74
2023/08/21 12:08:37;;;;;;;4.25;0.90;;;25.00;99.90;;;;;;5047265;28;20178;-76
2023/08/21 12:11:21;;;;;;;5.35;1.10;;;25.00;99.90;;;;;;5032240;28;20244;-74
2023/08/21 12:14:06;;;;;;;4.80;1.10;;;24.90;99.90;;;;;;5043108;28;20701;-76
2023/08/21 12:16:50;;;;;;;2.03;0.85;;;24.90;99.90;;;;;;5029131;28;20294;-75
2023/08/21 12:19:34;;;;;;;3.03;0.95;;;24.90;99.90;;;;;;5040560;28;20227;-75
2023/08/21 12:22:21;;;;;;;3.85;1.35;;;25.00;99.90;;;;;;5056685;28;20238;-74
2023/08/21 12:25:07;;;;;;;3.33;1.30;;;25.10;99.90;;;;;;5039014;28;20226;-73
2023/08/21 12:27:54;;;;;;;5.40;1.17;;;25.00;99.90;;;;;;5040863;28;20227;-72
2023/08/21 12:30:38;;;;;;;4.50;0.88;;;25.10;99.90;;;;;;5027290;28;20198;-74
2023/08/21 12:33:22;;;;;;;4.63;1.42;;;25.10;99.90;;;;;;5026335;28;20237;-74
2023/08/21 12:36:08;;;;;;;4.53;1.48;;;25.10;99.90;;;;;;5027172;28;20302;-73
2023/08/21 12:38:52;;;;;;;3.33;1.25;;;25.20;99.90;;;;;;5041700;28;20186;-75
2023/08/21 12:41:37;;;;;;;3.65;0.80;;;25.10;99.90;;;;;;5034858;28;20242;-74
2023/08/21 12:44:21;;;;;;;4.43;1.10;;;25.30;99.90;;;;;;5053335;28;20679;-73
2023/08/21 12:47:05;;;;;;;2.45;0.77;;;25.40;99.90;;;;;;5046433;28;20205;-73
2023/08/21 12:49:50;;;;;;;10.13;1.08;;;;;;;;;;5034723;28;20659;-74
2023/08/21 12:52:34;;;;;;;4.47;0.90;;;;;;;;;;5048839;28;20298;-75
2023/08/21 12:55:19;;;;;;;7.32;1.13;;;;;;;;;;5037555;28;20598;-75
2023/08/21 12:58:04;;;;;;;3.63;1.05;;;;;;;;;;5036810;28;20186;-74
2023/08/21 13:00:48;;;;;;;4.80;0.90;;;;;;;;;;5055012;28;20243;-74
2023/08/21 13:03:36;;;;;;;1.73;0.80;;;;;;;;;;5053763;28;20274;-73
2023/08/21 13:06:21;;;;;;;3.83;1.05;;;;;;;;;;5058085;28;20198;-73
2023/08/21 13:09:06;;;;;;;4.80;0.82;;;;;;;;;;5031575;28;20186;-74
2023/08/21 13:11:50;;;;;;;2.22;1.08;;;25.70;99.90;;;;;;5039100;28;20222;-74
2023/08/21 13:14:34;;;;;;;2.42;0.98;;;25.70;99.90;;;;;;5036326;28;20210;-75
2023/08/21 13:17:18;;;;;;;4.43;0.70;;;25.80;99.90;;;;;;5041167;28;20206;-74
2023/08/21 13:20:03;;;;;;;2.90;0.93;;;25.80;99.90;;;;;;5054382;28;20190;-73
2023/08/21 13:22:51;;;;;;;4.88;0.90;;;25.80;99.90;;;;;;5040909;28;20257;-75
2023/08/21 13:25:35;;;;;;;1.42;0.80;;;25.90;99.90;;;;;;5049708;28;20193;-73
2023/08/21 13:28:19;;;;;;;1.73;0.70;;;25.90;99.90;;;;;;5044309;28;20191;-75
2023/08/21 13:31:03;;;;;;;1.88;0.63;;;25.80;99.90;;;;;;5040512;28;20202;-74
2023/08/21 13:33:49;;;;;;;1.60;0.80;;;25.90;99.90;;;;;;5042519;28;20226;-74
2023/08/21 13:36:33;;;;;;;2.38;0.90;;;25.90;99.90;;;;;;5041555;28;20308;-74
2023/08/21 13:39:17;;;;;;;6.05;0.80;;;25.90;99.90;;;;;;5038329;28;20198;-73
2023/08/21 13:42:01;;;;;;;4.15;0.85;;;26.10;99.90;;;;;;5039165;28;20265;-75
2023/08/21 13:44:45;;;;;;;5.13;1.00;;;26.10;99.90;;;;;;5033608;28;20244;-75
2023/08/21 13:47:29;;;;;;;2.80;0.90;;;26.10;99.90;;;;;;5044336;28;20342;-75
2023/08/21 13:50:15;;;;;;;1.73;0.77;;;26.10;99.90;;;;;;5035409;28;20259;-74
2023/08/21 13:52:59;;;;;;;1.98;0.70;;;26.10;99.90;;;;;;5039354;28;20213;-75
2023/08/21 13:55:44;;;;;;;3.83;0.90;;;26.10;99.90;;;;;;5032347;28;20241;-76
2023/08/21 13:58:28;;;;;;;6.72;0.82;;;26.20;99.90;;;;;;5037090;28;20183;-75
2023/08/21 14:01:13;;;;;;;3.40;0.80;;;26.20;99.90;;;;;;5040209;28;20232;-75
2023/08/21 14:03:57;;;;;;;2.08;0.85;;;26.30;99.90;;;;;;5043024;28;20195;-76
2023/08/21 14:06:41;;;;;;;4.65;0.73;;;26.20;99.90;;;;;;5039625;28;20202;-76
2023/08/21 14:09:25;;;;;;;3.10;0.90;;;26.20;99.90;;;;;;5033213;28;20191;-76
2023/08/21 14:12:09;;;;;;;5.97;1.15;;;26.20;99.90;;;;;;5035089;28;20250;-74
2023/08/21 14:14:53;;;;;;;2.50;0.82;;;26.20;99.90;;;;;;5053739;28;20249;-76
2023/08/21 14:17:38;;;;;;;3.70;0.90;;;26.20;99.90;;;;;;5035962;28;20191;-76
2023/08/21 14:20:22;;;;;;;4.05;0.77;;;26.20;99.90;;;;;;5051775;28;20250;-76